Time;durP1;ratioP1;P1;durP2;ratioP2;P2;SDS_P1;SDS_P2;PMS_P1;PMS_P2;Temp;Humidity;BMP_temperature;BMP_pressure;BME280_temperature;BME280_humidity;BME280_pressure;Samples;Min_cycle;Max_cycle;Signal;HPM_P1;HPM_P2
2021/11/24 00:01:11;;;;;;;617.53;100.82;;;5.90;99.90;;;;;;5055236;28;20496;-67
2021/11/24 00:03:36;;;;;;;713.40;105.78;;;5.90;99.90;;;;;;5055421;28;20029;-67
2021/11/24 00:06:02;;;;;;;1039.45;130.88;;;5.90;99.90;;;;;;5054863;28;20068;-67
2021/11/24 00:08:28;;;;;;;884.55;121.25;;;5.90;99.90;;;;;;5054813;28;20017;-67
2021/11/24 00:10:53;;;;;;;641.28;104.05;;;5.90;99.90;;;;;;5054078;28;20473;-67
2021/11/24 00:13:19;;;;;;;750.92;107.22;;;5.90;99.90;;;;;;5053426;28;20025;-67
2021/11/24 00:15:45;;;;;;;566.72;95.50;;;5.90;99.90;;;;;;5055116;28;20108;-66
2021/11/24 00:18:10;;;;;;;638.95;102.57;;;5.90;99.90;;;;;;5052939;28;20021;-66
2021/11/24 00:20:36;;;;;;;592.35;97.43;;;5.90;99.90;;;;;;5054706;28;20051;-67
2021/11/24 00:23:02;;;;;;;505.33;92.80;;;5.90;99.90;;;;;;5053940;28;20092;-67
2021/11/24 00:25:27;;;;;;;773.72;108.70;;;5.90;99.90;;;;;;5055001;28;20025;-67
2021/11/24 00:27:53;;;;;;;442.90;88.78;;;5.90;99.90;;;;;;5055000;28;20032;-67
2021/11/24 00:30:19;;;;;;;771.35;111.05;;;5.90;99.90;;;;;;5036503;28;20448;-67
2021/11/24 00:32:44;;;;;;;616.80;100.45;;;5.90;99.90;;;;;;5054594;28;20056;-67
2021/11/24 00:35:10;;;;;;;767.47;108.70;;;5.90;99.90;;;;;;5054208;28;20048;-66
2021/11/24 00:37:36;;;;;;;506.08;93.75;;;6.00;99.90;;;;;;5053843;28;20052;-66
2021/11/24 00:40:04;;;;;;;641.20;97.85;;;5.90;99.90;;;;;;5053314;28;20067;-66
2021/11/24 00:42:30;;;;;;;763.80;107.88;;;6.00;99.90;;;;;;5054167;28;20041;-66
2021/11/24 00:44:55;;;;;;;703.72;105.43;;;6.00;99.90;;;;;;5054663;28;20516;-66
2021/11/24 00:47:21;;;;;;;723.45;110.25;;;6.00;99.90;;;;;;5054354;28;20035;-66
2021/11/24 00:49:47;;;;;;;895.47;117.40;;;5.90;99.90;;;;;;5054597;28;20040;-66
2021/11/24 00:52:12;;;;;;;907.60;124.00;;;5.90;99.90;;;;;;5054539;28;20107;-66
2021/11/24 00:54:38;;;;;;;1056.80;127.90;;;6.00;99.90;;;;;;5052735;28;20470;-66
2021/11/24 00:57:05;;;;;;;769.30;110.35;;;5.90;99.90;;;;;;5054212;28;20029;-66
2021/11/24 00:59:30;;;;;;;668.70;103.47;;;6.00;99.90;;;;;;5052576;28;20488;-67
2021/11/24 01:01:56;;;;;;;525.97;92.90;;;5.90;99.90;;;;;;5054408;28;20033;-67
2021/11/24 01:04:21;;;;;;;670.15;104.72;;;5.90;99.90;;;;;;5054363;28;20041;-67
2021/11/24 01:06:47;;;;;;;852.40;113.72;;;6.00;99.90;;;;;;5036296;28;20021;-67
2021/11/24 01:09:13;;;;;;;789.28;110.38;;;6.00;99.90;;;;;;5052490;28;20069;-67
2021/11/24 01:11:39;;;;;;;853.35;118.47;;;5.90;99.90;;;;;;5053021;28;20078;-66
2021/11/24 01:14:05;;;;;;;725.42;109.60;;;5.90;99.90;;;;;;5054139;28;20107;-66
2021/11/24 01:16:31;;;;;;;875.53;117.78;;;5.90;99.90;;;;;;5054172;28;20044;-67
2021/11/24 01:18:57;;;;;;;785.75;110.60;;;6.00;99.90;;;;;;5052961;28;20025;-67
2021/11/24 01:21:22;;;;;;;884.67;114.20;;;6.00;99.90;;;;;;5054084;28;20052;-67
2021/11/24 01:23:48;;;;;;;796.80;114.78;;;6.00;99.90;;;;;;5053785;28;20017;-67
2021/11/24 01:26:14;;;;;;;823.08;111.97;;;5.90;99.90;;;;;;5052788;28;20067;-67
2021/11/24 01:28:40;;;;;;;762.78;110.07;;;6.00;99.90;;;;;;5052564;28;20400;-67
2021/11/24 01:31:06;;;;;;;586.00;99.68;;;5.90;99.90;;;;;;5053834;28;20033;-67
2021/11/24 01:33:32;;;;;;;651.08;105.03;;;5.90;99.90;;;;;;5052997;28;20535;-66
2021/11/24 01:35:57;;;;;;;907.10;124.72;;;5.90;99.90;;;;;;5053175;28;20045;-67
2021/11/24 01:38:23;;;;;;;892.10;120.95;;;5.90;99.90;;;;;;5053621;28;20382;-67
2021/11/24 01:40:49;;;;;;;794.33;113.68;;;6.00;99.90;;;;;;5052724;28;20028;-67
2021/11/24 01:43:15;;;;;;;970.38;124.35;;;6.00;99.90;;;;;;5052431;28;20043;-67
2021/11/24 01:45:41;;;;;;;717.20;111.60;;;5.90;99.90;;;;;;5052042;28;20525;-67
2021/11/24 01:48:07;;;;;;;844.20;117.60;;;6.00;99.90;;;;;;5035810;28;20025;-67
2021/11/24 01:50:33;;;;;;;899.17;119.60;;;6.00;99.90;;;;;;5053814;28;20024;-67
2021/11/24 01:52:58;;;;;;;535.45;94.55;;;6.00;99.90;;;;;;5052350;28;20033;-67
2021/11/24 01:55:25;;;;;;;970.47;120.68;;;6.00;99.90;;;;;;5052562;28;20033;-67
2021/11/24 01:57:51;;;;;;;551.80;97.80;;;6.00;99.90;;;;;;5051930;28;20024;-67
2021/11/24 02:00:22;;;;;;;756.63;108.57;;;6.00;99.90;;;;;;5053734;28;20108;-67
2021/11/24 02:02:48;;;;;;;660.25;99.53;;;6.00;99.90;;;;;;5053669;28;20470;-67
2021/11/24 02:05:14;;;;;;;752.28;109.18;;;6.00;99.90;;;;;;5035761;28;20033;-67
2021/11/24 02:07:39;;;;;;;724.35;109.43;;;6.00;99.90;;;;;;5053642;28;20053;-67
2021/11/24 02:10:05;;;;;;;793.63;114.13;;;6.00;99.90;;;;;;5052491;28;20466;-67
2021/11/24 02:12:31;;;;;;;789.40;111.43;;;6.00;99.90;;;;;;5051830;28;20493;-66
2021/11/24 02:14:57;;;;;;;887.97;116.05;;;6.00;99.90;;;;;;5051688;28;20090;-67
2021/11/24 02:17:23;;;;;;;815.40;113.70;;;6.00;99.90;;;;;;5052988;28;20104;-67
2021/11/24 02:19:49;;;;;;;509.35;92.18;;;6.00;99.90;;;;;;5052036;28;20099;-67
2021/11/24 02:22:15;;;;;;;571.05;95.25;;;6.00;99.90;;;;;;5051743;28;20091;-67
2021/11/24 02:24:40;;;;;;;861.78;113.15;;;6.00;99.90;;;;;;5053442;28;20021;-67
2021/11/24 02:27:09;;;;;;;579.17;100.60;;;6.00;99.90;;;;;;5052188;28;20470;-67
2021/11/24 02:29:35;;;;;;;640.85;97.38;;;6.00;99.90;;;;;;5035576;28;20543;-67
2021/11/24 02:32:03;;;;;;;868.50;113.78;;;6.00;99.90;;;;;;5035031;28;20029;-66
2021/11/24 02:34:29;;;;;;;613.60;96.55;;;6.00;99.90;;;;;;5034758;28;20045;-67
2021/11/24 02:36:56;;;;;;;620.83;95.50;;;6.00;99.90;;;;;;5051710;28;20391;-67
2021/11/24 02:39:21;;;;;;;632.03;93.68;;;6.00;99.90;;;;;;5051882;28;20066;-67
2021/11/24 02:41:47;;;;;;;620.88;95.60;;;6.00;99.90;;;;;;5053451;28;20465;-67
2021/11/24 02:44:32;;;;;;;631.60;98.25;;;6.00;99.90;;;;;;5055184;28;20027;-67
2021/11/24 02:47:08;;;;;;;390.42;81.00;;;6.00;99.90;;;;;;5056922;28;20032;-66
2021/11/24 02:49:36;;;;;;;686.25;100.75;;;6.00;99.90;;;;;;5056630;28;20045;-67
2021/11/24 02:52:02;;;;;;;712.88;105.72;;;6.00;99.90;;;;;;5038989;28;20056;-67
2021/11/24 02:54:27;;;;;;;599.28;99.85;;;6.00;99.90;;;;;;5055260;28;20067;-67
2021/11/24 02:56:53;;;;;;;593.75;94.05;;;5.90;99.90;;;;;;5055599;28;20028;-66
2021/11/24 02:59:20;;;;;;;585.80;92.75;;;5.90;99.90;;;;;;5056434;28;20071;-67
2021/11/24 03:01:46;;;;;;;574.70;90.47;;;5.90;99.90;;;;;;5054920;28;20116;-67
2021/11/24 03:04:12;;;;;;;443.88;86.40;;;6.00;99.90;;;;;;5054854;28;20053;-66
2021/11/24 03:06:37;;;;;;;662.75;101.28;;;6.00;99.90;;;;;;5055549;28;20025;-66
2021/11/24 03:09:03;;;;;;;451.33;86.25;;;6.00;99.90;;;;;;5054707;28;20028;-66
2021/11/24 03:11:29;;;;;;;593.80;95.18;;;6.00;99.90;;;;;;5055473;28;20028;-66
2021/11/24 03:13:55;;;;;;;762.67;108.90;;;6.00;99.90;;;;;;5056147;28;20017;-66
2021/11/24 03:16:20;;;;;;;608.00;94.00;;;6.00;99.90;;;;;;5056264;28;20029;-66
2021/11/24 03:18:46;;;;;;;379.25;76.93;;;6.00;99.90;;;;;;5056336;28;20029;-66
2021/11/24 03:21:13;;;;;;;799.22;108.75;;;6.00;99.90;;;;;;5055028;28;20366;-67
2021/11/24 03:23:38;;;;;;;778.55;104.07;;;6.00;99.90;;;;;;5054426;28;20025;-66
2021/11/24 03:26:04;;;;;;;453.98;87.18;;;6.00;99.90;;;;;;5055915;28;20492;-66
2021/11/24 03:28:29;;;;;;;450.25;84.80;;;6.00;99.90;;;;;;5056099;28;20025;-66
2021/11/24 03:30:55;;;;;;;599.83;95.93;;;6.00;99.90;;;;;;5056121;28;20060;-66
2021/11/24 03:33:21;;;;;;;766.22;106.63;;;6.00;99.90;;;;;;5054590;28;20486;-66
2021/11/24 03:35:46;;;;;;;646.67;98.95;;;6.00;99.90;;;;;;5053985;28;20041;-66
2021/11/24 03:38:12;;;;;;;730.58;102.10;;;6.00;99.90;;;;;;5054240;28;20026;-66
2021/11/24 03:40:38;;;;;;;595.35;92.05;;;6.00;99.90;;;;;;5055887;28;20029;-65
2021/11/24 03:43:03;;;;;;;725.25;105.95;;;6.00;99.90;;;;;;5054387;28;20093;-66
2021/11/24 03:45:32;;;;;;;388.75;82.32;;;6.00;99.90;;;;;;5055812;28;20036;-66
2021/11/24 03:47:59;;;;;;;716.90;103.45;;;6.00;99.90;;;;;;5055231;28;20028;-66
2021/11/24 03:50:25;;;;;;;754.67;104.25;;;6.00;99.90;;;;;;5055168;28;20029;-67
2021/11/24 03:52:51;;;;;;;811.33;111.35;;;6.00;99.90;;;;;;5055085;28;20466;-66
2021/11/24 03:55:17;;;;;;;729.22;102.75;;;6.00;99.90;;;;;;5054126;28;20029;-67
2021/11/24 03:57:44;;;;;;;632.47;100.53;;;6.00;99.90;;;;;;5055294;28;20101;-66
2021/11/24 04:00:14;;;;;;;522.25;86.63;;;6.00;99.90;;;;;;5055514;28;20021;-68
2021/11/24 04:02:40;;;;;;;565.20;93.43;;;6.00;99.90;;;;;;5053686;28;20029;-66
2021/11/24 04:05:08;;;;;;;553.80;90.82;;;6.00;99.90;;;;;;5055187;28;20025;-68
2021/11/24 04:07:34;;;;;;;561.47;92.43;;;6.00;99.90;;;;;;5053574;28;20035;-66
2021/11/24 04:10:00;;;;;;;481.20;88.00;;;6.00;99.90;;;;;;5055348;28;20048;-66
2021/11/24 04:12:26;;;;;;;537.03;89.82;;;6.00;99.90;;;;;;5054756;28;20037;-67
2021/11/24 04:14:51;;;;;;;551.58;92.60;;;6.00;99.90;;;;;;5036994;28;20028;-66
2021/11/24 04:17:17;;;;;;;591.70;93.05;;;6.00;99.90;;;;;;5055196;28;20028;-67
2021/11/24 04:19:42;;;;;;;501.17;86.30;;;6.00;99.90;;;;;;5054617;28;20017;-67
2021/11/24 04:22:08;;;;;;;545.53;89.18;;;6.00;99.90;;;;;;5036786;28;20112;-67
2021/11/24 04:24:35;;;;;;;515.55;82.43;;;6.00;99.90;;;;;;5053681;28;20041;-66
2021/11/24 04:27:00;;;;;;;487.00;80.95;;;6.00;99.90;;;;;;5053613;28;20150;-67
2021/11/24 04:29:26;;;;;;;504.85;84.05;;;6.00;99.90;;;;;;5036853;28;20063;-67
2021/11/24 04:31:52;;;;;;;600.90;88.22;;;6.00;99.90;;;;;;5054696;28;20480;-66
2021/11/24 04:34:17;;;;;;;587.55;87.68;;;6.00;99.90;;;;;;5052681;28;20507;-68
2021/11/24 04:36:43;;;;;;;594.92;93.43;;;5.90;99.90;;;;;;5053145;28;20476;-68
2021/11/24 04:39:09;;;;;;;792.72;103.53;;;5.90;99.90;;;;;;5052992;28;20017;-66
2021/11/24 04:41:35;;;;;;;772.85;102.78;;;6.00;99.90;;;;;;5053032;28;20025;-67
2021/11/24 04:44:02;;;;;;;643.38;96.78;;;5.90;99.90;;;;;;5053014;28;20017;-66
2021/11/24 04:46:27;;;;;;;504.13;84.35;;;5.90;99.90;;;;;;5036856;28;20112;-67
2021/11/24 04:48:53;;;;;;;563.63;89.10;;;6.00;99.90;;;;;;5019852;28;20120;-67
2021/11/24 04:51:19;;;;;;;657.92;95.35;;;5.90;99.90;;;;;;5036711;28;20033;-65
2021/11/24 04:53:44;;;;;;;436.75;77.40;;;5.90;99.90;;;;;;5036177;28;20033;-65
2021/11/24 04:56:10;;;;;;;662.08;94.82;;;5.90;99.90;;;;;;5053435;28;20025;-65
2021/11/24 04:58:43;;;;;;;543.65;85.85;;;5.90;99.90;;;;;;5052657;28;20032;-65
2021/11/24 05:01:09;;;;;;;451.48;78.95;;;5.90;99.90;;;;;;5053417;28;20021;-66
2021/11/24 05:03:35;;;;;;;728.95;99.10;;;6.00;99.90;;;;;;5054116;28;20021;-65
2021/11/24 05:06:00;;;;;;;806.08;104.57;;;5.90;99.90;;;;;;5053648;28;20028;-65
2021/11/24 05:08:26;;;;;;;540.42;81.00;;;6.00;99.90;;;;;;5036316;28;20429;-64
2021/11/24 05:10:52;;;;;;;591.67;85.05;;;5.90;99.90;;;;;;5054272;28;20102;-64
2021/11/24 05:13:18;;;;;;;704.88;94.20;;;6.00;99.90;;;;;;5054214;28;20021;-66
2021/11/24 05:15:44;;;;;;;701.88;92.82;;;6.00;99.90;;;;;;5054139;28;20021;-65
2021/11/24 05:18:19;;;;;;;734.38;93.55;;;6.00;99.90;;;;;;5052702;28;20017;-65
2021/11/24 05:20:45;;;;;;;538.72;83.90;;;6.00;99.90;;;;;;5054109;28;20017;-65
2021/11/24 05:23:14;;;;;;;536.67;78.22;;;6.00;99.90;;;;;;5053526;28;20017;-65
2021/11/24 05:25:40;;;;;;;579.83;84.50;;;6.00;99.90;;;;;;5054057;28;20079;-65
2021/11/24 05:28:06;;;;;;;468.27;74.03;;;6.10;99.90;;;;;;5054064;28;20037;-66
2021/11/24 05:30:32;;;;;;;419.58;74.65;;;6.00;99.90;;;;;;5052202;28;20036;-65
2021/11/24 05:32:57;;;;;;;421.15;75.60;;;6.00;99.90;;;;;;5052494;28;20124;-64
2021/11/24 05:35:25;;;;;;;329.02;67.55;;;6.10;99.90;;;;;;5052187;28;20044;-65
2021/11/24 05:37:52;;;;;;;312.98;68.88;;;6.00;99.90;;;;;;5053910;28;20024;-65
2021/11/24 05:40:18;;;;;;;353.48;69.00;;;6.00;99.90;;;;;;5053217;28;20020;-65
2021/11/24 05:42:49;;;;;;;394.55;71.32;;;6.00;99.90;;;;;;5053376;28;20028;-65
2021/11/24 05:45:27;;;;;;;326.38;68.25;;;6.00;99.90;;;;;;5053306;28;20025;-66
2021/11/24 05:47:55;;;;;;;321.33;68.93;;;6.00;99.90;;;;;;5053890;28;20067;-65
2021/11/24 05:50:22;;;;;;;367.98;71.22;;;6.00;99.90;;;;;;5053814;28;20100;-65
2021/11/24 05:52:48;;;;;;;430.58;73.72;;;6.00;99.90;;;;;;5052380;28;20021;-65
2021/11/24 05:55:14;;;;;;;493.10;74.03;;;6.00;99.90;;;;;;5052588;28;20017;-65
2021/11/24 05:57:40;;;;;;;386.00;69.50;;;5.90;99.90;;;;;;5053460;28;20025;-65
2021/11/24 06:00:07;;;;;;;367.80;70.80;;;6.00;99.90;;;;;;5052722;28;20033;-65
2021/11/24 06:02:32;;;;;;;428.17;73.10;;;6.00;99.90;;;;;;5053739;28;20390;-65
2021/11/24 06:04:58;;;;;;;299.63;66.70;;;6.00;99.90;;;;;;5052236;28;20021;-65
2021/11/24 06:07:24;;;;;;;431.35;70.38;;;6.00;99.90;;;;;;5052503;28;20409;-64
2021/11/24 06:09:50;;;;;;;367.42;70.40;;;6.00;99.90;;;;;;5053298;28;20021;-65
2021/11/24 06:12:16;;;;;;;324.63;66.72;;;6.00;99.90;;;;;;5052481;28;20025;-65
2021/11/24 06:14:43;;;;;;;301.83;62.72;;;6.00;99.90;;;;;;5052087;28;20029;-65
2021/11/24 06:17:09;;;;;;;336.75;66.88;;;6.00;99.90;;;;;;5054559;28;20028;-64
2021/11/24 06:19:35;;;;;;;335.67;66.28;;;6.00;99.90;;;;;;5056282;28;20377;-65
2021/11/24 06:22:00;;;;;;;402.63;69.97;;;6.00;99.90;;;;;;5022528;28;20025;-66
2021/11/24 06:24:26;;;;;;;303.25;63.97;;;6.00;99.90;;;;;;5057375;28;20084;-65
2021/11/24 06:26:51;;;;;;;271.45;61.40;;;6.00;99.90;;;;;;5055912;28;20366;-64
2021/11/24 06:29:17;;;;;;;273.73;63.42;;;6.00;99.90;;;;;;5057262;28;20029;-65
2021/11/24 06:31:42;;;;;;;370.75;64.30;;;6.00;99.90;;;;;;5055796;28;20017;-64
2021/11/24 06:34:08;;;;;;;328.17;66.63;;;6.00;99.90;;;;;;5056952;28;20021;-65
2021/11/24 06:36:33;;;;;;;302.30;63.28;;;6.00;99.90;;;;;;5055276;28;20020;-64
2021/11/24 06:38:59;;;;;;;327.23;65.22;;;6.00;99.90;;;;;;5056834;28;20462;-65
2021/11/24 06:41:24;;;;;;;299.65;63.75;;;6.00;99.90;;;;;;5056050;28;20027;-65
2021/11/24 06:43:50;;;;;;;349.38;65.53;;;6.00;99.90;;;;;;5038626;28;20070;-65
2021/11/24 06:46:15;;;;;;;322.20;62.92;;;6.00;99.90;;;;;;5056958;28;20025;-65
2021/11/24 06:48:41;;;;;;;291.77;63.88;;;6.00;99.90;;;;;;5038445;28;20060;-65
2021/11/24 06:51:07;;;;;;;281.48;62.80;;;6.00;99.90;;;;;;5056800;28;20029;-65
2021/11/24 06:53:32;;;;;;;285.83;61.85;;;6.00;99.90;;;;;;5055689;28;20100;-65
2021/11/24 06:55:58;;;;;;;309.08;64.13;;;6.00;99.90;;;;;;5021885;28;20095;-65
2021/11/24 06:58:23;;;;;;;300.05;62.92;;;6.10;99.90;;;;;;5056166;28;20025;-64
2021/11/24 07:00:49;;;;;;;320.63;64.05;;;6.00;99.90;;;;;;5056088;28;20115;-65
2021/11/24 07:03:14;;;;;;;329.83;67.78;;;6.00;99.90;;;;;;5056229;28;20025;-65
2021/11/24 07:05:40;;;;;;;315.70;66.82;;;6.00;99.90;;;;;;5055900;28;20104;-65
2021/11/24 07:08:06;;;;;;;331.13;67.00;;;6.00;99.90;;;;;;5054737;28;20585;-65
2021/11/24 07:10:32;;;;;;;256.17;62.47;;;6.00;99.90;;;;;;5056433;28;20044;-65
2021/11/24 07:12:59;;;;;;;292.55;67.47;;;6.00;99.90;;;;;;5056051;28;20029;-65
2021/11/24 07:15:26;;;;;;;320.45;66.35;;;6.00;99.90;;;;;;5055584;28;20470;-65
2021/11/24 07:17:53;;;;;;;306.08;66.88;;;6.00;99.90;;;;;;5054470;28;20021;-66
2021/11/24 07:20:18;;;;;;;282.92;64.82;;;6.00;99.90;;;;;;5037982;28;20425;-64
2021/11/24 07:22:45;;;;;;;271.42;61.67;;;6.10;99.90;;;;;;5056326;28;20025;-65
2021/11/24 07:25:13;;;;;;;271.83;64.35;;;6.00;99.90;;;;;;5056210;28;20481;-65
2021/11/24 07:27:39;;;;;;;260.50;62.88;;;6.00;99.90;;;;;;5055765;28;20099;-65
2021/11/24 07:30:06;;;;;;;283.27;63.85;;;6.00;99.90;;;;;;5054965;28;20083;-65
2021/11/24 07:32:32;;;;;;;261.17;63.33;;;6.00;99.90;;;;;;5037778;28;20107;-64
2021/11/24 07:34:58;;;;;;;251.30;61.05;;;6.00;99.90;;;;;;5054839;28;20040;-65
2021/11/24 07:37:25;;;;;;;288.70;65.82;;;6.10;99.90;;;;;;5037746;28;20496;-65
2021/11/24 07:39:50;;;;;;;303.25;66.03;;;6.10;99.90;;;;;;5055533;28;20037;-65
2021/11/24 07:42:16;;;;;;;334.00;70.90;;;6.10;99.90;;;;;;5036653;28;20108;-65
2021/11/24 07:44:42;;;;;;;313.77;66.57;;;6.10;99.90;;;;;;5053704;28;20017;-64
2021/11/24 07:47:07;;;;;;;324.27;68.10;;;6.10;99.90;;;;;;5053482;28;20029;-65
2021/11/24 07:49:33;;;;;;;310.30;66.97;;;6.10;99.90;;;;;;5053615;28;20017;-65
2021/11/24 07:51:59;;;;;;;284.52;66.75;;;6.20;99.90;;;;;;5036724;28;20171;-65
2021/11/24 07:54:25;;;;;;;293.60;65.47;;;6.20;99.90;;;;;;5054919;28;20112;-65
2021/11/24 07:56:50;;;;;;;323.23;66.47;;;6.20;99.90;;;;;;5055565;28;20021;-65
2021/11/24 07:59:16;;;;;;;291.08;66.97;;;6.20;99.90;;;;;;5053148;28;20028;-63
2021/11/24 08:01:42;;;;;;;364.17;68.88;;;6.20;99.90;;;;;;5050887;28;20021;-65
2021/11/24 08:04:07;;;;;;;329.08;68.63;;;6.20;99.90;;;;;;5055437;28;20397;-65
2021/11/24 08:06:33;;;;;;;359.08;69.25;;;6.20;99.90;;;;;;5054412;28;20366;-65
2021/11/24 08:08:59;;;;;;;352.48;68.80;;;6.30;99.90;;;;;;5053246;28;20033;-65
2021/11/24 08:11:24;;;;;;;344.73;67.78;;;6.20;99.90;;;;;;5055320;28;20537;-65
2021/11/24 08:13:50;;;;;;;324.15;68.80;;;6.20;99.90;;;;;;5054565;28;20175;-65
2021/11/24 08:16:15;;;;;;;295.83;67.18;;;6.30;99.90;;;;;;5053305;28;20052;-65
2021/11/24 08:18:41;;;;;;;279.45;65.10;;;6.20;99.90;;;;;;5052900;28;20440;-65
2021/11/24 08:21:06;;;;;;;289.55;65.30;;;6.20;99.90;;;;;;5052952;28;20489;-65
2021/11/24 08:23:32;;;;;;;322.40;66.72;;;6.20;99.90;;;;;;5054116;28;20052;-66
2021/11/24 08:25:58;;;;;;;294.17;65.22;;;6.20;99.90;;;;;;5054188;28;20066;-66
2021/11/24 08:28:24;;;;;;;274.33;63.55;;;6.30;99.90;;;;;;5052831;28;20060;-65
2021/11/24 08:30:52;;;;;;;281.63;65.93;;;6.20;99.90;;;;;;5038721;28;20029;-66
2021/11/24 08:33:17;;;;;;;272.02;65.47;;;6.20;99.90;;;;;;5053308;28;20534;-64
2021/11/24 08:35:43;;;;;;;293.73;65.30;;;6.20;99.90;;;;;;5052721;28;20077;-65
2021/11/24 08:38:09;;;;;;;291.27;66.45;;;6.30;99.90;;;;;;5052627;28;20100;-64
2021/11/24 08:40:34;;;;;;;293.25;64.50;;;6.30;99.90;;;;;;5059083;28;20094;-65
2021/11/24 08:43:02;;;;;;;272.65;65.85;;;6.30;99.90;;;;;;5053701;28;20183;-65
2021/11/24 08:45:28;;;;;;;265.55;65.03;;;6.30;99.90;;;;;;5054334;28;20029;-65
2021/11/24 08:47:54;;;;;;;259.35;63.88;;;6.40;99.90;;;;;;5052827;28;20186;-65
2021/11/24 08:50:20;;;;;;;213.18;58.83;;;6.40;99.90;;;;;;5052954;28;20039;-65
2021/11/24 08:52:46;;;;;;;220.10;58.45;;;6.50;99.90;;;;;;5051887;28;20048;-65
2021/11/24 08:55:13;;;;;;;194.23;57.17;;;6.50;99.90;;;;;;5038691;28;20035;-65
2021/11/24 08:57:39;;;;;;;203.32;57.65;;;6.50;99.90;;;;;;5052646;28;20025;-66
2021/11/24 09:00:07;;;;;;;191.93;55.53;;;6.60;99.90;;;;;;5052704;28;20495;-65
2021/11/24 09:02:32;;;;;;;187.63;54.45;;;6.60;99.90;;;;;;5052089;28;20511;-66
2021/11/24 09:04:58;;;;;;;182.50;51.88;;;6.70;99.90;;;;;;5035613;28;20037;-65
2021/11/24 09:07:23;;;;;;;172.77;51.00;;;6.60;99.90;;;;;;5052195;28;20535;-66
2021/11/24 09:09:49;;;;;;;155.93;49.33;;;6.70;99.90;;;;;;5053252;28;20141;-65
2021/11/24 09:12:15;;;;;;;142.45;48.80;;;6.60;99.90;;;;;;5051672;28;20500;-65
2021/11/24 09:14:41;;;;;;;148.45;49.33;;;6.70;99.90;;;;;;5053136;28;20033;-65
2021/11/24 09:17:07;;;;;;;130.68;45.83;;;6.70;99.90;;;;;;5054092;28;20490;-65
2021/11/24 09:19:32;;;;;;;130.93;46.58;;;6.70;99.90;;;;;;5053418;28;20017;-65
2021/11/24 09:21:58;;;;;;;118.68;41.60;;;6.70;99.90;;;;;;5052799;28;20036;-65
2021/11/24 09:24:27;;;;;;;124.53;41.85;;;6.80;99.90;;;;;;5052341;28;20422;-68
2021/11/24 09:26:58;;;;;;;108.78;39.83;;;6.80;99.90;;;;;;5052475;28;20025;-65
2021/11/24 09:29:25;;;;;;;110.00;40.20;;;6.90;99.90;;;;;;5032660;28;20029;-65
2021/11/24 09:31:52;;;;;;;110.25;39.50;;;6.90;99.90;;;;;;5050118;28;20111;-65
2021/11/24 09:34:19;;;;;;;108.18;36.35;;;6.90;99.90;;;;;;5053028;28;20501;-65
2021/11/24 09:36:44;;;;;;;109.88;40.75;;;6.90;99.90;;;;;;5051736;28;20028;-65
2021/11/24 09:39:10;;;;;;;113.07;39.78;;;7.00;99.90;;;;;;5053759;28;20036;-65
2021/11/24 09:41:42;;;;;;;112.88;41.55;;;7.00;99.90;;;;;;5050961;28;20025;-66
2021/11/24 09:44:08;;;;;;;103.18;37.00;;;7.00;99.90;;;;;;5052813;28;20017;-65
2021/11/24 09:46:34;;;;;;;103.30;37.08;;;7.00;99.90;;;;;;5053694;28;20513;-65
2021/11/24 09:49:03;;;;;;;99.70;37.72;;;7.10;99.90;;;;;;5053082;28;20021;-65
2021/11/24 09:51:32;;;;;;;104.22;38.53;;;7.10;99.90;;;;;;5054341;28;20029;-65
2021/11/24 09:54:01;;;;;;;97.50;37.78;;;7.10;99.90;;;;;;5057110;28;20025;-65
2021/11/24 09:56:28;;;;;;;95.75;37.55;;;7.10;99.90;;;;;;5056812;28;20061;-65
2021/11/24 09:58:53;;;;;;;92.88;38.10;;;7.30;99.90;;;;;;5057279;28;20100;-65
2021/11/24 10:01:19;;;;;;;87.43;36.03;;;7.20;99.90;;;;;;5039340;28;20457;-65
2021/11/24 10:03:46;;;;;;;84.05;35.28;;;7.30;99.90;;;;;;5057270;28;20028;-65
2021/11/24 10:06:12;;;;;;;84.72;35.28;;;7.30;99.90;;;;;;5056716;28;20377;-66
2021/11/24 10:08:38;;;;;;;82.00;34.55;;;7.30;99.90;;;;;;5056753;28;20035;-66
2021/11/24 10:11:03;;;;;;;86.30;35.78;;;7.30;99.90;;;;;;5057117;28;20351;-65
2021/11/24 10:13:29;;;;;;;84.88;36.70;;;7.40;99.90;;;;;;5056580;28;20470;-65
2021/11/24 10:15:57;;;;;;;88.15;36.55;;;7.50;99.90;;;;;;5055921;28;20079;-65
2021/11/24 10:18:27;;;;;;;87.07;34.78;;;7.40;99.90;;;;;;5055493;28;20025;-66
2021/11/24 10:23:50;;;;;;;98.65;38.03;;;7.50;99.90;;;;;;5131107;27;20104;-66
2021/11/24 10:26:39;;;;;;;90.22;35.60;;;7.60;99.90;;;;;;5111758;28;20424;-65
2021/11/24 10:29:14;;;;;;;84.60;34.83;;;7.70;99.90;;;;;;5091380;28;20020;-66
2021/11/24 10:31:45;;;;;;;83.05;35.08;;;7.70;99.90;;;;;;5095834;28;20012;-63
2021/11/24 10:34:20;;;;;;;87.72;34.75;;;7.70;99.90;;;;;;5092723;28;20490;-66
2021/11/24 10:37:07;;;;;;;81.45;34.03;;;7.70;99.90;;;;;;5110965;28;20020;-65
2021/11/24 10:39:45;;;;;;;81.45;35.00;;;7.70;99.90;;;;;;5110900;28;20413;-65
2021/11/24 10:42:15;;;;;;;79.82;32.40;;;7.80;99.90;;;;;;5093936;28;20059;-66
2021/11/24 10:44:48;;;;;;;79.05;31.75;;;7.80;99.90;;;;;;5110881;28;20027;-65
2021/11/24 10:47:14;;;;;;;76.25;31.30;;;7.80;99.90;;;;;;5110684;28;20062;-65
2021/11/24 10:49:44;;;;;;;78.50;32.10;;;7.70;99.90;;;;;;5092746;28;20450;-65
2021/11/24 10:52:12;;;;;;;82.70;32.50;;;7.80;99.90;;;;;;5092269;28;20384;-65
2021/11/24 10:54:38;;;;;;;73.82;29.25;;;7.80;99.90;;;;;;5110401;28;20525;-65
2021/11/24 10:57:10;;;;;;;69.50;29.05;;;7.80;99.90;;;;;;5110736;28;20106;-65
2021/11/24 10:59:39;;;;;;;76.60;31.98;;;7.90;99.90;;;;;;5092891;28;20068;-65
2021/11/24 11:02:27;;;;;;;80.63;29.75;;;8.00;99.90;;;;;;5109913;28;20020;-66
2021/11/24 11:05:17;;;;;;;77.55;30.50;;;8.10;99.90;;;;;;5093282;28;20118;-66
2021/11/24 11:10:30;;;;;;;77.80;30.08;;;8.20;99.90;;;;;;5112048;27;20881;-66
2021/11/24 11:13:03;;;;;;;79.18;30.65;;;8.20;99.90;;;;;;5110971;28;20031;-66
2021/11/24 11:15:36;;;;;;;76.22;30.83;;;8.10;99.90;;;;;;5110572;28;20413;-66
2021/11/24 11:18:03;;;;;;;;;;;8.20;99.90;;;;;;5093048;28;20036;-65
2021/11/24 11:20:33;;;;;;;72.88;28.77;;;8.20;99.90;;;;;;5110182;28;19912;-65
2021/11/24 11:23:19;;;;;;;73.93;29.45;;;8.20;99.90;;;;;;5110314;28;20469;-65
2021/11/24 11:25:57;;;;;;;69.80;27.48;;;8.20;99.90;;;;;;5110323;28;20093;-65
2021/11/24 11:28:26;;;;;;;64.13;26.83;;;8.20;99.90;;;;;;5109773;28;20358;-65
2021/11/24 11:30:54;;;;;;;69.90;28.60;;;8.10;99.90;;;;;;5109269;28;20062;-65
2021/11/24 11:33:24;;;;;;;76.72;29.45;;;8.20;99.90;;;;;;5110916;28;20043;-66
2021/11/24 11:35:50;;;;;;;69.38;28.67;;;8.20;99.90;;;;;;5110736;28;20027;-66
2021/11/24 11:38:19;;;;;;;72.95;28.55;;;8.20;99.90;;;;;;5109362;28;20035;-65
2021/11/24 11:40:45;;;;;;;71.57;29.38;;;8.30;99.90;;;;;;5109500;28;20027;-65
2021/11/24 11:43:12;;;;;;;77.22;29.67;;;8.20;99.90;;;;;;5088496;28;20024;-65
2021/11/24 11:45:40;;;;;;;69.82;27.83;;;8.30;99.90;;;;;;5103272;28;20030;-65
2021/11/24 11:48:07;;;;;;;67.65;27.45;;;8.30;99.90;;;;;;5108801;28;20027;-66
2021/11/24 11:50:55;;;;;;;63.97;27.73;;;8.30;99.90;;;;;;5110651;28;20020;-66
2021/11/24 11:53:24;;;;;;;68.30;27.52;;;8.30;99.90;;;;;;5118392;28;20038;-66
2021/11/24 11:56:11;;;;;;;68.97;27.52;;;8.30;99.90;;;;;;5111220;27;20023;-65
2021/11/24 11:59:17;;;;;;;70.03;28.25;;;8.30;99.90;;;;;;5109873;28;20024;-65
2021/11/24 12:01:49;;;;;;;68.32;28.55;;;8.40;99.90;;;;;;5108906;28;20120;-66
2021/11/24 12:04:19;;;;;;;67.85;28.17;;;8.40;99.90;;;;;;5110563;28;20468;-66
2021/11/24 12:09:40;;;;;;;69.35;28.40;;;8.40;99.90;;;;;;5090500;28;20364;-65
2021/11/24 12:12:10;;;;;;;67.13;27.85;;;8.40;99.90;;;;;;5089751;28;20052;-66
2021/11/24 12:15:02;;;;;;;64.90;29.00;;;8.40;99.90;;;;;;5090451;28;20496;-66
2021/11/24 12:22:53;;;;;;;67.85;27.60;;;8.40;99.90;;;;;;5110906;27;20388;-66
2021/11/24 12:25:25;;;;;;;68.70;28.27;;;8.50;99.90;;;;;;5111366;28;20031;-65
2021/11/24 12:33:15;;;;;;;59.92;26.13;;;8.50;99.90;;;;;;5113418;27;1184565;-65
2021/11/24 12:41:15;;;;;;;58.63;24.98;;;8.60;99.90;;;;;;5111401;27;20396;-65
2021/11/24 12:43:43;;;;;;;65.78;26.95;;;8.70;99.90;;;;;;5110806;28;20019;-65
2021/11/24 12:46:16;;;;;;;57.92;26.63;;;8.60;99.90;;;;;;5109862;28;20478;-65
2021/11/24 12:48:50;;;;;;;;;;;8.60;99.90;;;;;;5110438;28;20129;-65
2021/11/24 12:51:22;;;;;;;60.60;26.63;;;8.60;99.90;;;;;;5109631;28;19908;-66
2021/11/24 12:53:53;;;;;;;60.60;26.80;;;8.60;99.90;;;;;;5109303;28;20032;-64